sensor_id;sensor_type;location;lat;lon;timestamp;temperature;humidity
47805;DHT22;33568;45.286;9.900;2023-07-31T00:02:07;28.50;93.70
47805;DHT22;33568;45.286;9.900;2023-07-31T00:04:33;28.50;93.80
47805;DHT22;33568;45.286;9.900;2023-07-31T00:07:00;28.40;94.00
47805;DHT22;33568;45.286;9.900;2023-07-31T00:09:27;28.40;94.00
47805;DHT22;33568;45.286;9.900;2023-07-31T00:11:53;28.40;94.00
47805;DHT22;33568;45.286;9.900;2023-07-31T00:14:23;28.50;94.00
47805;DHT22;33568;45.286;9.900;2023-07-31T00:16:50;28.50;94.00
47805;DHT22;33568;45.286;9.900;2023-07-31T00:19:16;28.50;93.90
47805;DHT22;33568;45.286;9.900;2023-07-31T00:21:44;28.40;93.90
47805;DHT22;33568;45.286;9.900;2023-07-31T00:24:10;28.40;94.00
47805;DHT22;33568;45.286;9.900;2023-07-31T00:26:37;28.30;94.10
47805;DHT22;33568;45.286;9.900;2023-07-31T00:29:04;28.30;94.30
47805;DHT22;33568;45.286;9.900;2023-07-31T00:31:31;28.20;94.30
47805;DHT22;33568;45.286;9.900;2023-07-31T00:33:57;28.20;94.40
47805;DHT22;33568;45.286;9.900;2023-07-31T00:36:24;28.10;94.60
47805;DHT22;33568;45.286;9.900;2023-07-31T00:38:51;28.10;94.60
47805;DHT22;33568;45.286;9.900;2023-07-31T00:41:17;28.00;94.70
47805;DHT22;33568;45.286;9.900;2023-07-31T00:43:44;27.90;94.80
47805;DHT22;33568;45.286;9.900;2023-07-31T00:46:11;28.00;94.80
47805;DHT22;33568;45.286;9.900;2023-07-31T00:48:38;27.90;94.90
47805;DHT22;33568;45.286;9.900;2023-07-31T00:51:06;27.90;94.80
47805;DHT22;33568;45.286;9.900;2023-07-31T00:53:35;28.00;94.90
47805;DHT22;33568;45.286;9.900;2023-07-31T00:56:03;28.00;94.80
47805;DHT22;33568;45.286;9.900;2023-07-31T00:58:31;28.00;94.80
47805;DHT22;33568;45.286;9.900;2023-07-31T01:00:57;27.90;94.80
47805;DHT22;33568;45.286;9.900;2023-07-31T01:03:24;28.00;94.90
47805;DHT22;33568;45.286;9.900;2023-07-31T01:06:02;28.00;94.80
47805;DHT22;33568;45.286;9.900;2023-07-31T01:11:38;27.90;94.80
47805;DHT22;33568;45.286;9.900;2023-07-31T01:14:07;27.90;95.00
47805;DHT22;33568;45.286;9.900;2023-07-31T01:16:34;28.00;94.90
47805;DHT22;33568;45.286;9.900;2023-07-31T01:19:00;28.10;94.80
47805;DHT22;33568;45.286;9.900;2023-07-31T01:27:10;28.00;94.60
47805;DHT22;33568;45.286;9.900;2023-07-31T01:30:04;27.90;94.70
47805;DHT22;33568;45.286;9.900;2023-07-31T01:32:29;27.90;94.70
47805;DHT22;33568;45.286;9.900;2023-07-31T01:34:57;27.90;94.80
47805;DHT22;33568;45.286;9.900;2023-07-31T01:37:29;27.80;94.90
47805;DHT22;33568;45.286;9.900;2023-07-31T01:39:58;27.80;94.90
47805;DHT22;33568;45.286;9.900;2023-07-31T01:42:25;27.80;94.90
47805;DHT22;33568;45.286;9.900;2023-07-31T01:44:51;27.70;94.90
47805;DHT22;33568;45.286;9.900;2023-07-31T01:47:18;27.70;95.00
47805;DHT22;33568;45.286;9.900;2023-07-31T01:49:44;27.70;95.10
47805;DHT22;33568;45.286;9.900;2023-07-31T01:52:10;27.70;95.00
47805;DHT22;33568;45.286;9.900;2023-07-31T01:54:37;27.70;95.10
47805;DHT22;33568;45.286;9.900;2023-07-31T01:57:04;27.60;95.10
47805;DHT22;33568;45.286;9.900;2023-07-31T01:59:30;27.60;95.00
47805;DHT22;33568;45.286;9.900;2023-07-31T02:01:56;27.60;95.30
47805;DHT22;33568;45.286;9.900;2023-07-31T02:04:23;27.60;95.20
47805;DHT22;33568;45.286;9.900;2023-07-31T02:06:50;27.60;95.20
47805;DHT22;33568;45.286;9.900;2023-07-31T02:09:16;27.60;95.30
47805;DHT22;33568;45.286;9.900;2023-07-31T02:11:43;27.70;95.30
47805;DHT22;33568;45.286;9.900;2023-07-31T02:14:09;27.60;95.20
47805;DHT22;33568;45.286;9.900;2023-07-31T02:16:36;27.60;95.30
47805;DHT22;33568;45.286;9.900;2023-07-31T02:19:02;27.60;95.30
47805;DHT22;33568;45.286;9.900;2023-07-31T02:21:29;27.60;95.30
47805;DHT22;33568;45.286;9.900;2023-07-31T02:23:55;27.50;95.30
47805;DHT22;33568;45.286;9.900;2023-07-31T02:26:22;27.50;95.40
47805;DHT22;33568;45.286;9.900;2023-07-31T02:28:48;27.50;95.50
47805;DHT22;33568;45.286;9.900;2023-07-31T02:31:15;27.40;95.50
47805;DHT22;33568;45.286;9.900;2023-07-31T02:33:41;27.30;95.60
47805;DHT22;33568;45.286;9.900;2023-07-31T02:36:08;27.30;95.80
47805;DHT22;33568;45.286;9.900;2023-07-31T02:38:34;27.30;95.90
47805;DHT22;33568;45.286;9.900;2023-07-31T02:41:00;27.30;95.90
47805;DHT22;33568;45.286;9.900;2023-07-31T02:43:27;27.30;95.80
47805;DHT22;33568;45.286;9.900;2023-07-31T02:45:54;27.30;95.80
47805;DHT22;33568;45.286;9.900;2023-07-31T02:48:20;27.40;95.80
47805;DHT22;33568;45.286;9.900;2023-07-31T02:50:48;27.30;95.80
47805;DHT22;33568;45.286;9.900;2023-07-31T02:53:14;27.30;95.70
47805;DHT22;33568;45.286;9.900;2023-07-31T02:55:41;27.30;95.70
47805;DHT22;33568;45.286;9.900;2023-07-31T02:58:07;27.30;95.80
47805;DHT22;33568;45.286;9.900;2023-07-31T03:00:34;27.20;95.80
47805;DHT22;33568;45.286;9.900;2023-07-31T03:03:00;27.20;95.80
47805;DHT22;33568;45.286;9.900;2023-07-31T03:05:27;27.20;95.80
47805;DHT22;33568;45.286;9.900;2023-07-31T03:07:54;27.20;95.70
47805;DHT22;33568;45.286;9.900;2023-07-31T03:10:20;27.20;95.90
47805;DHT22;33568;45.286;9.900;2023-07-31T03:12:47;27.10;95.80
47805;DHT22;33568;45.286;9.900;2023-07-31T03:15:14;27.10;95.80
47805;DHT22;33568;45.286;9.900;2023-07-31T03:17:40;27.10;95.90
47805;DHT22;33568;45.286;9.900;2023-07-31T03:20:07;27.10;95.90
47805;DHT22;33568;45.286;9.900;2023-07-31T03:22:34;27.00;95.90
47805;DHT22;33568;45.286;9.900;2023-07-31T03:25:02;27.10;96.10
47805;DHT22;33568;45.286;9.900;2023-07-31T03:27:28;27.10;96.10
47805;DHT22;33568;45.286;9.900;2023-07-31T03:29:55;27.10;96.00
47805;DHT22;33568;45.286;9.900;2023-07-31T03:32:21;27.10;96.00
47805;DHT22;33568;45.286;9.900;2023-07-31T03:34:49;27.10;95.90
47805;DHT22;33568;45.286;9.900;2023-07-31T03:37:16;27.00;96.00
47805;DHT22;33568;45.286;9.900;2023-07-31T03:39:42;27.00;96.10
47805;DHT22;33568;45.286;9.900;2023-07-31T03:42:09;27.00;96.10
47805;DHT22;33568;45.286;9.900;2023-07-31T03:44:35;26.90;96.20
47805;DHT22;33568;45.286;9.900;2023-07-31T03:47:02;26.90;96.20
47805;DHT22;33568;45.286;9.900;2023-07-31T03:49:28;26.90;96.30
47805;DHT22;33568;45.286;9.900;2023-07-31T03:51:55;26.90;96.30
47805;DHT22;33568;45.286;9.900;2023-07-31T03:54:21;27.00;96.20
47805;DHT22;33568;45.286;9.900;2023-07-31T03:56:48;27.00;96.10
47805;DHT22;33568;45.286;9.900;2023-07-31T03:59:14;27.00;96.10
47805;DHT22;33568;45.286;9.900;2023-07-31T04:01:40;27.00;95.90
47805;DHT22;33568;45.286;9.900;2023-07-31T04:04:07;27.00;95.90
47805;DHT22;33568;45.286;9.900;2023-07-31T04:06:33;27.00;95.90
47805;DHT22;33568;45.286;9.900;2023-07-31T04:08:59;27.00;95.90
47805;DHT22;33568;45.286;9.900;2023-07-31T04:11:27;27.00;95.90
47805;DHT22;33568;45.286;9.900;2023-07-31T04:13:55;27.00;95.80
47805;DHT22;33568;45.286;9.900;2023-07-31T04:16:21;27.00;95.90
47805;DHT22;33568;45.286;9.900;2023-07-31T04:18:47;27.00;95.90
47805;DHT22;33568;45.286;9.900;2023-07-31T04:21:14;26.90;95.80
47805;DHT22;33568;45.286;9.900;2023-07-31T04:23:40;26.90;95.80
47805;DHT22;33568;45.286;9.900;2023-07-31T04:26:07;26.90;95.90
47805;DHT22;33568;45.286;9.900;2023-07-31T04:28:33;26.80;96.00
47805;DHT22;33568;45.286;9.900;2023-07-31T04:31:00;26.80;96.00
47805;DHT22;33568;45.286;9.900;2023-07-31T04:33:26;26.80;96.10
47805;DHT22;33568;45.286;9.900;2023-07-31T04:35:53;26.80;96.10
47805;DHT22;33568;45.286;9.900;2023-07-31T04:38:20;26.80;96.20
47805;DHT22;33568;45.286;9.900;2023-07-31T04:40:47;26.70;96.30
47805;DHT22;33568;45.286;9.900;2023-07-31T04:43:13;26.70;96.40
47805;DHT22;33568;45.286;9.900;2023-07-31T04:45:45;26.70;96.40
47805;DHT22;33568;45.286;9.900;2023-07-31T04:48:13;26.70;96.40
47805;DHT22;33568;45.286;9.900;2023-07-31T04:50:39;26.80;96.50
47805;DHT22;33568;45.286;9.900;2023-07-31T04:53:06;26.80;96.40
47805;DHT22;33568;45.286;9.900;2023-07-31T04:55:32;26.90;96.40
47805;DHT22;33568;45.286;9.900;2023-07-31T04:57:59;26.90;96.40
47805;DHT22;33568;45.286;9.900;2023-07-31T05:00:25;26.90;96.30
47805;DHT22;33568;45.286;9.900;2023-07-31T05:02:52;27.00;96.30
47805;DHT22;33568;45.286;9.900;2023-07-31T05:05:18;27.00;96.40
47805;DHT22;33568;45.286;9.900;2023-07-31T05:07:44;27.00;96.40
47805;DHT22;33568;45.286;9.900;2023-07-31T05:10:11;27.10;96.40
47805;DHT22;33568;45.286;9.900;2023-07-31T05:12:37;27.10;96.50
47805;DHT22;33568;45.286;9.900;2023-07-31T05:15:04;27.10;96.50
47805;DHT22;33568;45.286;9.900;2023-07-31T05:17:31;27.10;96.40
47805;DHT22;33568;45.286;9.900;2023-07-31T05:19:57;27.20;96.30
47805;DHT22;33568;45.286;9.900;2023-07-31T05:22:24;27.20;96.30
47805;DHT22;33568;45.286;9.900;2023-07-31T05:24:50;27.30;96.30
47805;DHT22;33568;45.286;9.900;2023-07-31T05:27:17;27.30;96.20
47805;DHT22;33568;45.286;9.900;2023-07-31T05:29:44;27.40;96.20
47805;DHT22;33568;45.286;9.900;2023-07-31T05:32:11;27.50;96.10
47805;DHT22;33568;45.286;9.900;2023-07-31T05:34:38;27.50;96.00
47805;DHT22;33568;45.286;9.900;2023-07-31T05:37:05;27.60;95.70
47805;DHT22;33568;45.286;9.900;2023-07-31T05:39:32;27.80;95.60
47805;DHT22;33568;45.286;9.900;2023-07-31T05:41:58;27.90;95.40
47805;DHT22;33568;45.286;9.900;2023-07-31T05:44:25;27.90;95.40
47805;DHT22;33568;45.286;9.900;2023-07-31T05:46:51;28.00;95.30
47805;DHT22;33568;45.286;9.900;2023-07-31T05:49:17;28.10;95.20
47805;DHT22;33568;45.286;9.900;2023-07-31T05:51:44;28.10;95.10
47805;DHT22;33568;45.286;9.900;2023-07-31T05:54:10;28.10;95.10
47805;DHT22;33568;45.286;9.900;2023-07-31T05:56:36;28.20;95.20
47805;DHT22;33568;45.286;9.900;2023-07-31T05:59:03;28.20;95.10
47805;DHT22;33568;45.286;9.900;2023-07-31T06:01:31;28.20;94.90
47805;DHT22;33568;45.286;9.900;2023-07-31T06:03:57;28.20;94.80
47805;DHT22;33568;45.286;9.900;2023-07-31T06:06:24;28.10;94.60
47805;DHT22;33568;45.286;9.900;2023-07-31T06:08:50;28.10;94.80
47805;DHT22;33568;45.286;9.900;2023-07-31T06:11:18;28.10;94.80
47805;DHT22;33568;45.286;9.900;2023-07-31T06:13:45;28.10;95.00
47805;DHT22;33568;45.286;9.900;2023-07-31T06:16:13;28.00;95.00
47805;DHT22;33568;45.286;9.900;2023-07-31T06:18:39;28.00;95.00
47805;DHT22;33568;45.286;9.900;2023-07-31T06:21:05;28.10;95.00
47805;DHT22;33568;45.286;9.900;2023-07-31T06:23:32;28.10;94.80
47805;DHT22;33568;45.286;9.900;2023-07-31T06:26:00;28.30;94.60
47805;DHT22;33568;45.286;9.900;2023-07-31T06:28:30;28.30;94.50
47805;DHT22;33568;45.286;9.900;2023-07-31T06:31:00;28.40;94.30
47805;DHT22;33568;45.286;9.900;2023-07-31T06:33:27;28.50;94.10
47805;DHT22;33568;45.286;9.900;2023-07-31T06:35:54;28.50;94.00
47805;DHT22;33568;45.286;9.900;2023-07-31T06:38:23;28.50;94.00
47805;DHT22;33568;45.286;9.900;2023-07-31T06:40:50;28.50;94.00
47805;DHT22;33568;45.286;9.900;2023-07-31T06:43:17;28.50;94.00
47805;DHT22;33568;45.286;9.900;2023-07-31T06:45:43;28.50;94.00
47805;DHT22;33568;45.286;9.900;2023-07-31T06:48:10;28.60;94.10
47805;DHT22;33568;45.286;9.900;2023-07-31T06:50:36;28.60;94.00
47805;DHT22;33568;45.286;9.900;2023-07-31T06:53:03;28.60;93.80
47805;DHT22;33568;45.286;9.900;2023-07-31T06:55:29;28.70;93.80
47805;DHT22;33568;45.286;9.900;2023-07-31T06:57:56;28.70;93.90
47805;DHT22;33568;45.286;9.900;2023-07-31T07:00:23;28.70;94.10
47805;DHT22;33568;45.286;9.900;2023-07-31T07:02:50;28.70;94.10
47805;DHT22;33568;45.286;9.900;2023-07-31T07:05:17;28.70;94.10
47805;DHT22;33568;45.286;9.900;2023-07-31T07:07:44;28.70;94.00
47805;DHT22;33568;45.286;9.900;2023-07-31T07:10:11;28.80;93.90
47805;DHT22;33568;45.286;9.900;2023-07-31T07:12:37;28.80;93.80
47805;DHT22;33568;45.286;9.900;2023-07-31T07:15:04;28.80;93.80
47805;DHT22;33568;45.286;9.900;2023-07-31T07:17:32;28.80;93.70
47805;DHT22;33568;45.286;9.900;2023-07-31T07:19:59;28.70;93.60
47805;DHT22;33568;45.286;9.900;2023-07-31T07:22:26;28.70;93.60
47805;DHT22;33568;45.286;9.900;2023-07-31T07:24:53;28.80;93.50
47805;DHT22;33568;45.286;9.900;2023-07-31T07:27:20;28.90;93.40
47805;DHT22;33568;45.286;9.900;2023-07-31T07:29:46;28.90;93.40
47805;DHT22;33568;45.286;9.900;2023-07-31T07:32:13;29.00;93.40
47805;DHT22;33568;45.286;9.900;2023-07-31T07:34:40;29.10;93.20
47805;DHT22;33568;45.286;9.900;2023-07-31T07:37:06;29.20;93.20
47805;DHT22;33568;45.286;9.900;2023-07-31T07:39:32;29.20;93.00
47805;DHT22;33568;45.286;9.900;2023-07-31T07:41:59;29.20;92.90
47805;DHT22;33568;45.286;9.900;2023-07-31T07:44:25;29.30;92.80
47805;DHT22;33568;45.286;9.900;2023-07-31T07:46:52;29.30;92.60
47805;DHT22;33568;45.286;9.900;2023-07-31T07:49:19;29.40;92.60
47805;DHT22;33568;45.286;9.900;2023-07-31T07:51:48;29.50;92.40
47805;DHT22;33568;45.286;9.900;2023-07-31T07:54:16;29.80;92.30
47805;DHT22;33568;45.286;9.900;2023-07-31T07:56:47;30.00;92.10
47805;DHT22;33568;45.286;9.900;2023-07-31T07:59:13;30.00;92.10
47805;DHT22;33568;45.286;9.900;2023-07-31T08:01:40;30.10;92.00
47805;DHT22;33568;45.286;9.900;2023-07-31T08:04:06;30.00;91.70
47805;DHT22;33568;45.286;9.900;2023-07-31T08:06:33;30.00;91.60
47805;DHT22;33568;45.286;9.900;2023-07-31T08:09:00;30.20;91.70
47805;DHT22;33568;45.286;9.900;2023-07-31T08:11:32;30.30;91.30
47805;DHT22;33568;45.286;9.900;2023-07-31T08:13:58;30.40;90.90
47805;DHT22;33568;45.286;9.900;2023-07-31T08:16:24;30.50;90.80
47805;DHT22;33568;45.286;9.900;2023-07-31T08:18:51;30.60;90.60
47805;DHT22;33568;45.286;9.900;2023-07-31T08:21:17;30.70;90.70
47805;DHT22;33568;45.286;9.900;2023-07-31T08:23:44;30.80;90.80
47805;DHT22;33568;45.286;9.900;2023-07-31T08:26:20;30.80;90.20
47805;DHT22;33568;45.286;9.900;2023-07-31T08:28:47;30.90;89.10
47805;DHT22;33568;45.286;9.900;2023-07-31T08:31:13;30.90;89.90
47805;DHT22;33568;45.286;9.900;2023-07-31T08:33:40;31.10;89.70
47805;DHT22;33568;45.286;9.900;2023-07-31T08:36:07;31.10;89.50
47805;DHT22;33568;45.286;9.900;2023-07-31T08:38:33;31.20;89.20
47805;DHT22;33568;45.286;9.900;2023-07-31T08:41:00;31.30;88.70
47805;DHT22;33568;45.286;9.900;2023-07-31T08:43:26;31.40;89.00
47805;DHT22;33568;45.286;9.900;2023-07-31T08:45:53;31.50;89.10
47805;DHT22;33568;45.286;9.900;2023-07-31T08:48:22;31.60;88.70
47805;DHT22;33568;45.286;9.900;2023-07-31T08:50:49;31.70;87.50
47805;DHT22;33568;45.286;9.900;2023-07-31T08:53:16;31.80;87.00
47805;DHT22;33568;45.286;9.900;2023-07-31T08:55:44;31.90;86.40
47805;DHT22;33568;45.286;9.900;2023-07-31T08:58:12;31.90;85.80
47805;DHT22;33568;45.286;9.900;2023-07-31T09:00:40;31.90;85.10
47805;DHT22;33568;45.286;9.900;2023-07-31T09:03:14;31.80;84.90
47805;DHT22;33568;45.286;9.900;2023-07-31T09:05:43;31.80;85.30
47805;DHT22;33568;45.286;9.900;2023-07-31T09:08:12;31.80;85.20
47805;DHT22;33568;45.286;9.900;2023-07-31T09:10:43;31.90;84.80
47805;DHT22;33568;45.286;9.900;2023-07-31T09:13:10;31.90;83.90
47805;DHT22;33568;45.286;9.900;2023-07-31T09:15:36;32.00;83.80
47805;DHT22;33568;45.286;9.900;2023-07-31T09:18:06;32.10;84.20
47805;DHT22;33568;45.286;9.900;2023-07-31T09:20:33;32.30;84.70
47805;DHT22;33568;45.286;9.900;2023-07-31T09:23:11;32.30;84.00
47805;DHT22;33568;45.286;9.900;2023-07-31T09:25:38;32.40;83.30
47805;DHT22;33568;45.286;9.900;2023-07-31T09:28:11;32.50;83.30
47805;DHT22;33568;45.286;9.900;2023-07-31T09:30:49;32.60;81.70
47805;DHT22;33568;45.286;9.900;2023-07-31T09:33:17;32.60;81.30
47805;DHT22;33568;45.286;9.900;2023-07-31T09:35:44;32.70;80.70
47805;DHT22;33568;45.286;9.900;2023-07-31T09:38:12;32.80;79.90
47805;DHT22;33568;45.286;9.900;2023-07-31T09:40:47;32.70;79.10
47805;DHT22;33568;45.286;9.900;2023-07-31T09:43:21;32.70;78.20
47805;DHT22;33568;45.286;9.900;2023-07-31T09:45:48;32.80;78.50
47805;DHT22;33568;45.286;9.900;2023-07-31T09:48:19;33.00;78.90
47805;DHT22;33568;45.286;9.900;2023-07-31T09:50:48;33.10;79.10
47805;DHT22;33568;45.286;9.900;2023-07-31T09:53:16;33.30;78.80
47805;DHT22;33568;45.286;9.900;2023-07-31T09:55:43;33.30;77.40
47805;DHT22;33568;45.286;9.900;2023-07-31T09:58:11;33.30;77.10
47805;DHT22;33568;45.286;9.900;2023-07-31T10:00:39;33.30;77.00
47805;DHT22;33568;45.286;9.900;2023-07-31T10:03:09;33.50;77.30
47805;DHT22;33568;45.286;9.900;2023-07-31T10:05:42;33.50;76.40
47805;DHT22;33568;45.286;9.900;2023-07-31T10:08:13;33.50;74.70
47805;DHT22;33568;45.286;9.900;2023-07-31T10:10:42;33.40;74.40
47805;DHT22;33568;45.286;9.900;2023-07-31T10:13:09;33.50;74.20
47805;DHT22;33568;45.286;9.900;2023-07-31T10:15:36;33.50;73.80
47805;DHT22;33568;45.286;9.900;2023-07-31T10:18:06;33.60;74.00
47805;DHT22;33568;45.286;9.900;2023-07-31T10:20:33;33.80;73.50
47805;DHT22;33568;45.286;9.900;2023-07-31T10:23:00;34.00;73.80
47805;DHT22;33568;45.286;9.900;2023-07-31T10:25:27;34.00;73.20
47805;DHT22;33568;45.286;9.900;2023-07-31T10:27:55;34.00;73.20
47805;DHT22;33568;45.286;9.900;2023-07-31T10:30:28;34.10;73.60
47805;DHT22;33568;45.286;9.900;2023-07-31T10:32:56;34.20;73.70
47805;DHT22;33568;45.286;9.900;2023-07-31T10:35:23;34.30;73.20
47805;DHT22;33568;45.286;9.900;2023-07-31T10:37:50;34.40;72.80
47805;DHT22;33568;45.286;9.900;2023-07-31T10:40:19;34.30;72.00
47805;DHT22;33568;45.286;9.900;2023-07-31T10:42:51;34.40;71.80
47805;DHT22;33568;45.286;9.900;2023-07-31T10:45:37;34.40;70.50
47805;DHT22;33568;45.286;9.900;2023-07-31T10:48:06;34.40;68.60
47805;DHT22;33568;45.286;9.900;2023-07-31T10:50:38;34.40;70.90
47805;DHT22;33568;45.286;9.900;2023-07-31T10:53:04;34.50;71.00
47805;DHT22;33568;45.286;9.900;2023-07-31T10:55:40;34.70;71.10
47805;DHT22;33568;45.286;9.900;2023-07-31T10:58:11;34.80;69.60
47805;DHT22;33568;45.286;9.900;2023-07-31T11:00:40;34.90;69.20
47805;DHT22;33568;45.286;9.900;2023-07-31T11:03:08;34.90;69.50
47805;DHT22;33568;45.286;9.900;2023-07-31T11:08:19;35.20;68.80
47805;DHT22;33568;45.286;9.900;2023-07-31T11:10:47;35.30;69.50
47805;DHT22;33568;45.286;9.900;2023-07-31T11:13:14;35.40;69.60
47805;DHT22;33568;45.286;9.900;2023-07-31T11:15:41;35.30;68.80
47805;DHT22;33568;45.286;9.900;2023-07-31T11:18:07;35.20;69.00
47805;DHT22;33568;45.286;9.900;2023-07-31T11:20:37;35.20;69.40
47805;DHT22;33568;45.286;9.900;2023-07-31T11:23:08;35.20;69.00
47805;DHT22;33568;45.286;9.900;2023-07-31T11:25:36;35.30;69.20
47805;DHT22;33568;45.286;9.900;2023-07-31T11:28:09;35.30;68.80
47805;DHT22;33568;45.286;9.900;2023-07-31T11:30:36;35.30;67.30
47805;DHT22;33568;45.286;9.900;2023-07-31T11:33:04;35.20;67.50
47805;DHT22;33568;45.286;9.900;2023-07-31T11:35:45;35.20;67.30
47805;DHT22;33568;45.286;9.900;2023-07-31T11:38:12;35.00;66.70
47805;DHT22;33568;45.286;9.900;2023-07-31T11:40:46;35.00;67.60
47805;DHT22;33568;45.286;9.900;2023-07-31T11:43:13;35.10;68.50
47805;DHT22;33568;45.286;9.900;2023-07-31T11:45:50;35.20;69.10
47805;DHT22;33568;45.286;9.900;2023-07-31T11:48:24;35.20;67.80
47805;DHT22;33568;45.286;9.900;2023-07-31T11:50:54;35.20;66.90
47805;DHT22;33568;45.286;9.900;2023-07-31T11:53:27;35.20;66.80
47805;DHT22;33568;45.286;9.900;2023-07-31T11:55:58;35.40;66.00
47805;DHT22;33568;45.286;9.900;2023-07-31T11:58:25;35.50;65.90
47805;DHT22;33568;45.286;9.900;2023-07-31T12:00:52;35.50;66.80
47805;DHT22;33568;45.286;9.900;2023-07-31T12:03:19;35.60;67.40
47805;DHT22;33568;45.286;9.900;2023-07-31T12:05:47;35.60;67.30
47805;DHT22;33568;45.286;9.900;2023-07-31T12:08:14;35.70;67.50
47805;DHT22;33568;45.286;9.900;2023-07-31T12:10:42;35.70;66.30
47805;DHT22;33568;45.286;9.900;2023-07-31T12:13:10;35.80;65.80
47805;DHT22;33568;45.286;9.900;2023-07-31T12:15:38;35.70;66.40
47805;DHT22;33568;45.286;9.900;2023-07-31T12:18:10;35.70;66.10
47805;DHT22;33568;45.286;9.900;2023-07-31T12:20:42;35.80;64.50
47805;DHT22;33568;45.286;9.900;2023-07-31T12:23:20;35.80;65.20
47805;DHT22;33568;45.286;9.900;2023-07-31T12:26:03;35.80;62.80
47805;DHT22;33568;45.286;9.900;2023-07-31T12:28:30;35.60;63.90
47805;DHT22;33568;45.286;9.900;2023-07-31T12:31:00;35.60;64.50
47805;DHT22;33568;45.286;9.900;2023-07-31T12:33:35;35.50;64.40
47805;DHT22;33568;45.286;9.900;2023-07-31T12:36:13;35.60;63.10
47805;DHT22;33568;45.286;9.900;2023-07-31T12:38:40;35.70;63.70
47805;DHT22;33568;45.286;9.900;2023-07-31T12:41:07;35.80;63.80
47805;DHT22;33568;45.286;9.900;2023-07-31T12:43:35;35.90;64.20
47805;DHT22;33568;45.286;9.900;2023-07-31T12:46:01;35.90;63.70
47805;DHT22;33568;45.286;9.900;2023-07-31T12:48:28;36.00;63.10
47805;DHT22;33568;45.286;9.900;2023-07-31T12:50:54;36.00;63.50
47805;DHT22;33568;45.286;9.900;2023-07-31T12:53:21;36.10;64.00
47805;DHT22;33568;45.286;9.900;2023-07-31T12:55:47;36.20;63.20
47805;DHT22;33568;45.286;9.900;2023-07-31T12:58:14;36.20;63.30
47805;DHT22;33568;45.286;9.900;2023-07-31T13:00:40;36.20;63.30
47805;DHT22;33568;45.286;9.900;2023-07-31T13:03:06;36.10;63.20
47805;DHT22;33568;45.286;9.900;2023-07-31T13:05:33;36.10;63.10
47805;DHT22;33568;45.286;9.900;2023-07-31T13:07:59;36.00;63.10
47805;DHT22;33568;45.286;9.900;2023-07-31T13:10:27;36.00;62.30
47805;DHT22;33568;45.286;9.900;2023-07-31T13:12:55;35.90;61.80
47805;DHT22;33568;45.286;9.900;2023-07-31T13:15:21;35.90;62.50
47805;DHT22;33568;45.286;9.900;2023-07-31T13:17:48;35.90;63.00
47805;DHT22;33568;45.286;9.900;2023-07-31T13:20:14;35.90;63.10
47805;DHT22;33568;45.286;9.900;2023-07-31T13:22:41;35.90;63.10
47805;DHT22;33568;45.286;9.900;2023-07-31T13:25:08;35.90;64.00
47805;DHT22;33568;45.286;9.900;2023-07-31T13:27:35;36.00;63.40
47805;DHT22;33568;45.286;9.900;2023-07-31T13:30:02;35.90;63.10
47805;DHT22;33568;45.286;9.900;2023-07-31T13:32:31;36.00;62.90
47805;DHT22;33568;45.286;9.900;2023-07-31T13:34:57;35.90;62.60
47805;DHT22;33568;45.286;9.900;2023-07-31T13:37:24;35.80;63.70
47805;DHT22;33568;45.286;9.900;2023-07-31T13:39:50;35.70;63.60
47805;DHT22;33568;45.286;9.900;2023-07-31T13:42:17;35.70;63.30
47805;DHT22;33568;45.286;9.900;2023-07-31T13:44:43;35.70;63.30
47805;DHT22;33568;45.286;9.900;2023-07-31T13:47:10;35.70;63.50
47805;DHT22;33568;45.286;9.900;2023-07-31T13:49:36;35.80;63.80
47805;DHT22;33568;45.286;9.900;2023-07-31T13:52:05;35.80;63.60
47805;DHT22;33568;45.286;9.900;2023-07-31T13:54:31;35.80;63.10
47805;DHT22;33568;45.286;9.900;2023-07-31T13:56:58;35.60;63.20
47805;DHT22;33568;45.286;9.900;2023-07-31T13:59:24;35.50;63.20
47805;DHT22;33568;45.286;9.900;2023-07-31T14:01:50;35.50;62.90
47805;DHT22;33568;45.286;9.900;2023-07-31T14:04:17;35.50;63.40
47805;DHT22;33568;45.286;9.900;2023-07-31T14:06:44;35.40;63.80
47805;DHT22;33568;45.286;9.900;2023-07-31T14:09:10;35.40;63.80
47805;DHT22;33568;45.286;9.900;2023-07-31T14:11:37;35.30;64.40
47805;DHT22;33568;45.286;9.900;2023-07-31T14:14:03;35.30;64.50
47805;DHT22;33568;45.286;9.900;2023-07-31T14:16:31;35.30;65.30
47805;DHT22;33568;45.286;9.900;2023-07-31T14:18:58;35.30;65.30
47805;DHT22;33568;45.286;9.900;2023-07-31T14:21:25;35.40;65.30
47805;DHT22;33568;45.286;9.900;2023-07-31T14:23:52;35.30;65.10
47805;DHT22;33568;45.286;9.900;2023-07-31T14:26:19;35.30;65.00
47805;DHT22;33568;45.286;9.900;2023-07-31T14:28:46;35.50;65.10
47805;DHT22;33568;45.286;9.900;2023-07-31T14:31:12;35.60;65.30
47805;DHT22;33568;45.286;9.900;2023-07-31T14:33:39;35.60;64.30
47805;DHT22;33568;45.286;9.900;2023-07-31T14:36:05;35.50;63.40
47805;DHT22;33568;45.286;9.900;2023-07-31T14:38:32;35.50;63.80
47805;DHT22;33568;45.286;9.900;2023-07-31T14:40:59;35.50;63.90
47805;DHT22;33568;45.286;9.900;2023-07-31T14:43:26;35.30;63.70
47805;DHT22;33568;45.286;9.900;2023-07-31T14:45:52;35.30;64.10
47805;DHT22;33568;45.286;9.900;2023-07-31T14:48:22;35.30;64.00
47805;DHT22;33568;45.286;9.900;2023-07-31T14:50:48;35.30;63.60
47805;DHT22;33568;45.286;9.900;2023-07-31T14:53:15;35.10;64.00
47805;DHT22;33568;45.286;9.900;2023-07-31T14:55:41;35.00;63.90
47805;DHT22;33568;45.286;9.900;2023-07-31T14:58:08;35.10;63.40
47805;DHT22;33568;45.286;9.900;2023-07-31T15:00:37;35.10;63.80
47805;DHT22;33568;45.286;9.900;2023-07-31T15:03:03;35.10;64.10
47805;DHT22;33568;45.286;9.900;2023-07-31T15:05:30;35.20;64.60
47805;DHT22;33568;45.286;9.900;2023-07-31T15:07:57;35.30;65.20
47805;DHT22;33568;45.286;9.900;2023-07-31T15:10:24;35.30;64.50
47805;DHT22;33568;45.286;9.900;2023-07-31T15:12:50;35.30;64.00
47805;DHT22;33568;45.286;9.900;2023-07-31T15:15:17;35.30;63.50
47805;DHT22;33568;45.286;9.900;2023-07-31T15:17:43;35.40;62.90
47805;DHT22;33568;45.286;9.900;2023-07-31T15:20:10;35.40;62.50
47805;DHT22;33568;45.286;9.900;2023-07-31T15:22:38;35.30;62.60
47805;DHT22;33568;45.286;9.900;2023-07-31T15:25:05;35.10;63.10
47805;DHT22;33568;45.286;9.900;2023-07-31T15:27:32;35.10;63.50
47805;DHT22;33568;45.286;9.900;2023-07-31T15:29:58;35.00;63.40
47805;DHT22;33568;45.286;9.900;2023-07-31T15:32:25;35.00;63.50
47805;DHT22;33568;45.286;9.900;2023-07-31T15:34:51;35.00;63.10
47805;DHT22;33568;45.286;9.900;2023-07-31T15:37:18;35.10;63.30
47805;DHT22;33568;45.286;9.900;2023-07-31T15:39:44;35.20;63.30
47805;DHT22;33568;45.286;9.900;2023-07-31T15:42:11;35.20;63.00
47805;DHT22;33568;45.286;9.900;2023-07-31T15:44:37;35.30;62.70